Wever, Iowa
Current Conditions -  °F | °C
As of 10:55 AM on Saturday 20 Dec 2014 (Local Time) from KFSW Reporting Station
Haze Haze  
Wind Chill: 31°   Ceiling: 800
Heat Index: 36°   Visibility: 4mi
Dew Point: 32°   Wind: 6mph
Humidity: 87%   Direction: 150°SSE
Pressure: 30.24"   Gusts: NA
Location:  40.71°N, 91.23°W
Report Text: KFSW 201655Z AUTO 15005KT 4SM BR OVC008 02/00 A3024 RMK AO2
Loading
Personal Weather Stations






























Interactive Weather Map New forecast layout! Learn more

10-Day Weather Forecast

Advertisements
Track Severe Weather on mobile